Amidon, North Dakota
Current Conditions -  °F | °C
As of 1:56 PM on Wednesday 26 Nov 2014 (Local Time) from KDIK Reporting Station
Scattered Clouds Scattered Clouds  
Wind Chill: -11°   Ceiling: Unl
Heat Index: -6°   Visibility: 10mi
Dew Point: -11°   Wind: 7mph
Humidity: 71%   Direction: 360°N
Pressure: 30.27"   Gusts: NA
Location:  46.48°N, 103.32°W
Report Text: KDIK 262056Z AUTO 36006KT 10SM SCT016 M06/M11 A3027 RMK AO2 SLP294 T10611106 53004
Loading
Personal Weather Stations






























Interactive Weather Map New forecast layout! Learn more

10-Day Weather Forecast

Advertisements
Track Severe Weather on mobile